sensor_id;sensor_type;location;lat;lon;timestamp;temperature;humidity
26655;DHT22;14278;50.784;4.630;2024-03-23T00:55:47;10.10;99.90
26655;DHT22;14278;50.784;4.630;2024-03-23T00:58:12;10.20;99.90
26655;DHT22;14278;50.784;4.630;2024-03-23T01:00:38;10.40;99.90
26655;DHT22;14278;50.784;4.630;2024-03-23T01:03:04;10.20;99.90
26655;DHT22;14278;50.784;4.630;2024-03-23T01:05:30;10.30;99.90
26655;DHT22;14278;50.784;4.630;2024-03-23T01:10:35;10.60;99.90
26655;DHT22;14278;50.784;4.630;2024-03-23T01:13:01;10.30;99.90
26655;DHT22;14278;50.784;4.630;2024-03-23T01:15:26;10.50;99.90
26655;DHT22;14278;50.784;4.630;2024-03-23T01:17:52;10.60;99.90
26655;DHT22;14278;50.784;4.630;2024-03-23T01:20:18;10.80;99.90
26655;DHT22;14278;50.784;4.630;2024-03-23T01:22:43;11.00;99.90
26655;DHT22;14278;50.784;4.630;2024-03-23T01:25:09;11.10;99.90
26655;DHT22;14278;50.784;4.630;2024-03-23T01:27:34;10.90;99.90
26655;DHT22;14278;50.784;4.630;2024-03-23T01:30:00;11.20;99.90
26655;DHT22;14278;50.784;4.630;2024-03-23T01:32:26;11.10;99.90
26655;DHT22;14278;50.784;4.630;2024-03-23T01:34:51;11.20;99.90
26655;DHT22;14278;50.784;4.630;2024-03-23T01:37:17;11.10;99.90
26655;DHT22;14278;50.784;4.630;2024-03-23T01:39:42;11.20;99.90
26655;DHT22;14278;50.784;4.630;2024-03-23T01:42:08;11.10;99.90
26655;DHT22;14278;50.784;4.630;2024-03-23T01:44:34;11.00;99.90
26655;DHT22;14278;50.784;4.630;2024-03-23T01:46:59;10.80;99.90
26655;DHT22;14278;50.784;4.630;2024-03-23T01:49:25;10.60;99.90
26655;DHT22;14278;50.784;4.630;2024-03-23T01:51:51;10.60;99.90
26655;DHT22;14278;50.784;4.630;2024-03-23T01:54:17;10.30;99.90
26655;DHT22;14278;50.784;4.630;2024-03-23T01:56:42;10.40;99.90
26655;DHT22;14278;50.784;4.630;2024-03-23T01:59:08;10.30;99.90
26655;DHT22;14278;50.784;4.630;2024-03-23T02:01:37;10.40;99.90
26655;DHT22;14278;50.784;4.630;2024-03-23T02:04:03;10.20;99.90
26655;DHT22;14278;50.784;4.630;2024-03-23T02:06:29;10.00;99.90
26655;DHT22;14278;50.784;4.630;2024-03-23T02:08:55;9.50;99.90
26655;DHT22;14278;50.784;4.630;2024-03-23T02:11:21;9.30;99.90
26655;DHT22;14278;50.784;4.630;2024-03-23T02:13:46;9.20;99.90
26655;DHT22;14278;50.784;4.630;2024-03-23T02:16:12;9.40;99.90
26655;DHT22;14278;50.784;4.630;2024-03-23T02:18:39;9.60;99.90
26655;DHT22;14278;50.784;4.630;2024-03-23T02:21:04;9.60;99.90
26655;DHT22;14278;50.784;4.630;2024-03-23T02:23:30;9.40;99.90
26655;DHT22;14278;50.784;4.630;2024-03-23T02:25:56;9.20;99.90
26655;DHT22;14278;50.784;4.630;2024-03-23T02:28:21;9.10;99.90
26655;DHT22;14278;50.784;4.630;2024-03-23T02:30:49;9.10;99.90
26655;DHT22;14278;50.784;4.630;2024-03-23T02:33:15;9.10;99.90
26655;DHT22;14278;50.784;4.630;2024-03-23T02:35:40;9.20;99.90
26655;DHT22;14278;50.784;4.630;2024-03-23T02:38:06;9.20;99.90
26655;DHT22;14278;50.784;4.630;2024-03-23T02:40:32;9.20;99.90
26655;DHT22;14278;50.784;4.630;2024-03-23T02:42:57;9.10;99.90
26655;DHT22;14278;50.784;4.630;2024-03-23T02:45:23;9.00;99.90
26655;DHT22;14278;50.784;4.630;2024-03-23T02:47:49;8.80;99.90
26655;DHT22;14278;50.784;4.630;2024-03-23T02:50:18;8.60;99.90
26655;DHT22;14278;50.784;4.630;2024-03-23T02:52:47;8.70;99.90
26655;DHT22;14278;50.784;4.630;2024-03-23T02:55:16;8.70;99.90
26655;DHT22;14278;50.784;4.630;2024-03-23T02:57:42;8.60;99.90
26655;DHT22;14278;50.784;4.630;2024-03-23T03:00:08;8.90;99.90
26655;DHT22;14278;50.784;4.630;2024-03-23T03:02:34;8.90;99.90
26655;DHT22;14278;50.784;4.630;2024-03-23T03:05:00;8.90;99.90
26655;DHT22;14278;50.784;4.630;2024-03-23T03:07:25;9.00;99.90
26655;DHT22;14278;50.784;4.630;2024-03-23T03:15:02;9.10;99.90
26655;DHT22;14278;50.784;4.630;2024-03-23T03:17:28;9.00;99.90
26655;DHT22;14278;50.784;4.630;2024-03-23T03:19:54;9.10;99.90
26655;DHT22;14278;50.784;4.630;2024-03-23T03:22:24;9.00;99.90
26655;DHT22;14278;50.784;4.630;2024-03-23T03:25:06;9.00;99.90
26655;DHT22;14278;50.784;4.630;2024-03-23T03:27:32;9.10;99.90
26655;DHT22;14278;50.784;4.630;2024-03-23T03:29:58;9.00;99.90
26655;DHT22;14278;50.784;4.630;2024-03-23T03:35:07;9.10;99.90
26655;DHT22;14278;50.784;4.630;2024-03-23T03:37:33;9.20;99.90
26655;DHT22;14278;50.784;4.630;2024-03-23T03:39:58;9.20;99.90
26655;DHT22;14278;50.784;4.630;2024-03-23T03:45:08;9.10;99.90
26655;DHT22;14278;50.784;4.630;2024-03-23T03:50:09;9.00;99.90
26655;DHT22;14278;50.784;4.630;2024-03-23T03:52:34;9.40;99.90
26655;DHT22;14278;50.784;4.630;2024-03-23T03:55:12;9.40;99.90
26655;DHT22;14278;50.784;4.630;2024-03-23T04:00:14;8.90;99.90
26655;DHT22;14278;50.784;4.630;2024-03-23T04:05:24;9.00;99.90
26655;DHT22;14278;50.784;4.630;2024-03-23T04:07:53;8.60;99.90
26655;DHT22;14278;50.784;4.630;2024-03-23T04:10:37;8.60;99.90
26655;DHT22;14278;50.784;4.630;2024-03-23T04:13:09;8.60;99.90
26655;DHT22;14278;50.784;4.630;2024-03-23T04:15:43;8.40;99.90
26655;DHT22;14278;50.784;4.630;2024-03-23T04:18:09;8.20;99.90
26655;DHT22;14278;50.784;4.630;2024-03-23T04:20:35;8.40;99.90
26655;DHT22;14278;50.784;4.630;2024-03-23T04:23:00;8.30;99.90
26655;DHT22;14278;50.784;4.630;2024-03-23T04:25:26;8.30;99.90
26655;DHT22;14278;50.784;4.630;2024-03-23T04:27:52;8.40;99.90
26655;DHT22;14278;50.784;4.630;2024-03-23T04:32:53;8.60;99.90
26655;DHT22;14278;50.784;4.630;2024-03-23T04:37:54;8.30;99.90
26655;DHT22;14278;50.784;4.630;2024-03-23T04:40:21;8.30;99.90
26655;DHT22;14278;50.784;4.630;2024-03-23T04:45:28;8.30;99.90
26655;DHT22;14278;50.784;4.630;2024-03-23T04:47:53;8.70;99.90
26655;DHT22;14278;50.784;4.630;2024-03-23T04:52:54;8.40;99.90
26655;DHT22;14278;50.784;4.630;2024-03-23T04:55:20;8.70;99.90
26655;DHT22;14278;50.784;4.630;2024-03-23T04:57:48;8.80;99.90
26655;DHT22;14278;50.784;4.630;2024-03-23T05:00:14;8.70;99.90
26655;DHT22;14278;50.784;4.630;2024-03-23T05:05:18;9.20;99.90
26655;DHT22;14278;50.784;4.630;2024-03-23T05:10:19;8.50;99.90
26655;DHT22;14278;50.784;4.630;2024-03-23T05:12:44;8.80;99.90
26655;DHT22;14278;50.784;4.630;2024-03-23T05:15:11;8.90;99.90
26655;DHT22;14278;50.784;4.630;2024-03-23T05:17:37;9.10;99.90
26655;DHT22;14278;50.784;4.630;2024-03-23T05:20:04;8.70;99.90
26655;DHT22;14278;50.784;4.630;2024-03-23T05:22:30;8.30;99.90
26655;DHT22;14278;50.784;4.630;2024-03-23T05:24:56;8.20;99.90
26655;DHT22;14278;50.784;4.630;2024-03-23T05:29:57;8.10;99.90
26655;DHT22;14278;50.784;4.630;2024-03-23T05:32:23;8.10;99.90
26655;DHT22;14278;50.784;4.630;2024-03-23T05:34:55;8.00;99.90
26655;DHT22;14278;50.784;4.630;2024-03-23T05:37:25;7.70;99.90
26655;DHT22;14278;50.784;4.630;2024-03-23T05:40:24;7.80;99.90
26655;DHT22;14278;50.784;4.630;2024-03-23T05:42:50;7.90;99.90
26655;DHT22;14278;50.784;4.630;2024-03-23T05:45:18;7.80;99.90
26655;DHT22;14278;50.784;4.630;2024-03-23T05:47:44;8.10;99.90
26655;DHT22;14278;50.784;4.630;2024-03-23T05:50:10;8.30;99.90
26655;DHT22;14278;50.784;4.630;2024-03-23T05:52:38;8.30;99.90
26655;DHT22;14278;50.784;4.630;2024-03-23T05:55:07;8.10;99.90
26655;DHT22;14278;50.784;4.630;2024-03-23T05:57:33;8.00;99.90
26655;DHT22;14278;50.784;4.630;2024-03-23T05:59:59;7.80;99.90
26655;DHT22;14278;50.784;4.630;2024-03-23T06:02:25;7.80;99.90
26655;DHT22;14278;50.784;4.630;2024-03-23T06:05:05;8.00;99.90
26655;DHT22;14278;50.784;4.630;2024-03-23T06:07:31;8.10;99.90
26655;DHT22;14278;50.784;4.630;2024-03-23T06:09:57;8.40;99.90
26655;DHT22;14278;50.784;4.630;2024-03-23T06:12:22;8.30;99.90
26655;DHT22;14278;50.784;4.630;2024-03-23T06:14:48;8.70;99.90
26655;DHT22;14278;50.784;4.630;2024-03-23T06:17:15;8.90;99.90
26655;DHT22;14278;50.784;4.630;2024-03-23T06:19:41;8.50;99.90
26655;DHT22;14278;50.784;4.630;2024-03-23T06:22:06;8.40;99.90
26655;DHT22;14278;50.784;4.630;2024-03-23T06:24:32;8.70;99.90
26655;DHT22;14278;50.784;4.630;2024-03-23T06:27:19;8.70;99.90
26655;DHT22;14278;50.784;4.630;2024-03-23T06:29:45;9.00;99.90
26655;DHT22;14278;50.784;4.630;2024-03-23T06:32:14;9.60;99.90
26655;DHT22;14278;50.784;4.630;2024-03-23T06:34:43;9.20;99.90
26655;DHT22;14278;50.784;4.630;2024-03-23T06:37:09;9.20;99.90
26655;DHT22;14278;50.784;4.630;2024-03-23T06:39:38;10.00;99.90
26655;DHT22;14278;50.784;4.630;2024-03-23T06:42:04;9.50;99.90
26655;DHT22;14278;50.784;4.630;2024-03-23T06:44:30;10.00;99.90
26655;DHT22;14278;50.784;4.630;2024-03-23T06:46:57;9.60;99.90
26655;DHT22;14278;50.784;4.630;2024-03-23T06:49:23;9.50;99.90
26655;DHT22;14278;50.784;4.630;2024-03-23T06:51:49;9.40;99.90
26655;DHT22;14278;50.784;4.630;2024-03-23T06:54:16;9.30;99.90
26655;DHT22;14278;50.784;4.630;2024-03-23T06:56:43;9.60;99.90
26655;DHT22;14278;50.784;4.630;2024-03-23T06:59:09;9.40;99.90
26655;DHT22;14278;50.784;4.630;2024-03-23T07:01:35;9.00;99.90
26655;DHT22;14278;50.784;4.630;2024-03-23T07:04:01;9.20;99.90
26655;DHT22;14278;50.784;4.630;2024-03-23T07:06:26;9.60;99.90
26655;DHT22;14278;50.784;4.630;2024-03-23T07:08:52;9.80;99.90
26655;DHT22;14278;50.784;4.630;2024-03-23T07:11:19;9.60;99.90
26655;DHT22;14278;50.784;4.630;2024-03-23T07:13:45;10.60;99.90
26655;DHT22;14278;50.784;4.630;2024-03-23T07:16:11;10.50;99.90
26655;DHT22;14278;50.784;4.630;2024-03-23T07:18:37;11.00;99.90
26655;DHT22;14278;50.784;4.630;2024-03-23T07:21:02;11.40;99.90
26655;DHT22;14278;50.784;4.630;2024-03-23T07:23:28;11.70;99.90
26655;DHT22;14278;50.784;4.630;2024-03-23T07:28:23;11.40;99.90
26655;DHT22;14278;50.784;4.630;2024-03-23T07:30:58;11.20;99.90
26655;DHT22;14278;50.784;4.630;2024-03-23T07:33:24;10.90;99.90
26655;DHT22;14278;50.784;4.630;2024-03-23T07:35:49;10.40;99.90
26655;DHT22;14278;50.784;4.630;2024-03-23T07:38:15;9.90;99.90
26655;DHT22;14278;50.784;4.630;2024-03-23T07:40:41;9.30;99.90
26655;DHT22;14278;50.784;4.630;2024-03-23T07:43:06;8.60;99.90
26655;DHT22;14278;50.784;4.630;2024-03-23T07:45:32;8.80;99.90
26655;DHT22;14278;50.784;4.630;2024-03-23T07:47:57;8.50;99.90
26655;DHT22;14278;50.784;4.630;2024-03-23T07:50:23;8.70;99.90
26655;DHT22;14278;50.784;4.630;2024-03-23T07:52:49;8.70;99.90
26655;DHT22;14278;50.784;4.630;2024-03-23T07:55:14;9.40;99.90
26655;DHT22;14278;50.784;4.630;2024-03-23T07:57:40;10.30;99.90
26655;DHT22;14278;50.784;4.630;2024-03-23T08:10:52;12.40;99.90
26655;DHT22;14278;50.784;4.630;2024-03-23T08:13:19;12.40;99.90
26655;DHT22;14278;50.784;4.630;2024-03-23T08:15:45;12.50;99.90
26655;DHT22;14278;50.784;4.630;2024-03-23T08:20:47;12.60;99.90
26655;DHT22;14278;50.784;4.630;2024-03-23T08:25:48;12.90;99.90
26655;DHT22;14278;50.784;4.630;2024-03-23T08:44:12;11.00;99.90
26655;DHT22;14278;50.784;4.630;2024-03-23T08:47:01;10.80;99.90
26655;DHT22;14278;50.784;4.630;2024-03-23T08:49:27;10.80;99.90
26655;DHT22;14278;50.784;4.630;2024-03-23T08:51:53;11.00;99.90
26655;DHT22;14278;50.784;4.630;2024-03-23T08:54:23;11.20;99.90
26655;DHT22;14278;50.784;4.630;2024-03-23T08:56:49;10.90;99.90
26655;DHT22;14278;50.784;4.630;2024-03-23T08:59:19;11.30;99.90
26655;DHT22;14278;50.784;4.630;2024-03-23T09:04:30;11.50;99.90
26655;DHT22;14278;50.784;4.630;2024-03-23T09:07:24;11.60;99.90
26655;DHT22;14278;50.784;4.630;2024-03-23T09:12:46;11.10;99.90
26655;DHT22;14278;50.784;4.630;2024-03-23T09:17:49;11.10;99.90
26655;DHT22;14278;50.784;4.630;2024-03-23T09:20:15;11.20;99.90
26655;DHT22;14278;50.784;4.630;2024-03-23T09:22:41;10.90;99.90
26655;DHT22;14278;50.784;4.630;2024-03-23T09:25:07;11.30;99.90
26655;DHT22;14278;50.784;4.630;2024-03-23T09:27:35;12.10;99.90
26655;DHT22;14278;50.784;4.630;2024-03-23T09:30:19;12.20;99.90
26655;DHT22;14278;50.784;4.630;2024-03-23T09:37:56;11.60;99.90
26655;DHT22;14278;50.784;4.630;2024-03-23T09:40:22;11.70;99.90
26655;DHT22;14278;50.784;4.630;2024-03-23T09:45:29;11.20;99.90
26655;DHT22;14278;50.784;4.630;2024-03-23T09:48:20;10.90;99.90
26655;DHT22;14278;50.784;4.630;2024-03-23T09:50:46;10.20;99.90
26655;DHT22;14278;50.784;4.630;2024-03-23T09:55:49;10.50;99.90
26655;DHT22;14278;50.784;4.630;2024-03-23T09:58:19;10.40;99.90
26655;DHT22;14278;50.784;4.630;2024-03-23T10:03:50;10.90;99.90
26655;DHT22;14278;50.784;4.630;2024-03-23T10:06:21;10.90;99.90
26655;DHT22;14278;50.784;4.630;2024-03-23T10:08:47;10.90;99.90
26655;DHT22;14278;50.784;4.630;2024-03-23T10:19:07;9.70;99.90
26655;DHT22;14278;50.784;4.630;2024-03-23T10:21:55;10.00;99.90
26655;DHT22;14278;50.784;4.630;2024-03-23T10:24:21;10.30;99.90
26655;DHT22;14278;50.784;4.630;2024-03-23T10:29:51;10.80;99.90
26655;DHT22;14278;50.784;4.630;2024-03-23T10:38:46;12.10;99.90
26655;DHT22;14278;50.784;4.630;2024-03-23T10:41:13;11.30;99.90
26655;DHT22;14278;50.784;4.630;2024-03-23T10:43:40;11.00;99.90
26655;DHT22;14278;50.784;4.630;2024-03-23T10:46:05;11.70;99.90
26655;DHT22;14278;50.784;4.630;2024-03-23T10:48:32;11.80;99.90
26655;DHT22;14278;50.784;4.630;2024-03-23T10:51:00;11.50;99.90
26655;DHT22;14278;50.784;4.630;2024-03-23T10:56:04;11.10;99.90
26655;DHT22;14278;50.784;4.630;2024-03-23T10:58:54;11.10;99.90
26655;DHT22;14278;50.784;4.630;2024-03-23T11:06:38;13.70;99.90
26655;DHT22;14278;50.784;4.630;2024-03-23T11:15:17;14.80;99.90
26655;DHT22;14278;50.784;4.630;2024-03-23T11:18:07;13.70;99.90
26655;DHT22;14278;50.784;4.630;2024-03-23T11:23:32;14.40;99.90
26655;DHT22;14278;50.784;4.630;2024-03-23T11:25:58;14.80;99.90
26655;DHT22;14278;50.784;4.630;2024-03-23T11:33:49;16.10;99.90
26655;DHT22;14278;50.784;4.630;2024-03-23T11:42:23;16.50;99.90
26655;DHT22;14278;50.784;4.630;2024-03-23T11:45:08;14.90;99.90
26655;DHT22;14278;50.784;4.630;2024-03-23T11:51:29;15.10;99.90
26655;DHT22;14278;50.784;4.630;2024-03-23T11:59:56;13.80;99.90
26655;DHT22;14278;50.784;4.630;2024-03-23T12:02:43;12.70;99.90
26655;DHT22;14278;50.784;4.630;2024-03-23T12:05:33;12.60;99.90
26655;DHT22;14278;50.784;4.630;2024-03-23T12:08:18;12.10;99.90
26655;DHT22;14278;50.784;4.630;2024-03-23T12:10:48;11.70;99.90
26655;DHT22;14278;50.784;4.630;2024-03-23T12:13:16;12.00;99.90
26655;DHT22;14278;50.784;4.630;2024-03-23T12:26:22;11.20;99.90
26655;DHT22;14278;50.784;4.630;2024-03-23T12:35:13;11.00;99.90
26655;DHT22;14278;50.784;4.630;2024-03-23T12:37:40;11.70;99.90
26655;DHT22;14278;50.784;4.630;2024-03-23T12:40:28;12.40;99.90
26655;DHT22;14278;50.784;4.630;2024-03-23T12:43:12;12.60;99.90
26655;DHT22;14278;50.784;4.630;2024-03-23T12:50:56;12.00;99.90
26655;DHT22;14278;50.784;4.630;2024-03-23T12:53:23;11.70;99.90
26655;DHT22;14278;50.784;4.630;2024-03-23T12:58:27;11.60;99.90
26655;DHT22;14278;50.784;4.630;2024-03-23T13:03:33;10.80;99.90
26655;DHT22;14278;50.784;4.630;2024-03-23T13:09:15;10.80;99.90
26655;DHT22;14278;50.784;4.630;2024-03-23T13:19:37;11.40;99.90
26655;DHT22;14278;50.784;4.630;2024-03-23T13:22:29;11.50;99.90
26655;DHT22;14278;50.784;4.630;2024-03-23T13:27:31;11.30;99.90
26655;DHT22;14278;50.784;4.630;2024-03-23T13:32:53;11.50;99.90
26655;DHT22;14278;50.784;4.630;2024-03-23T13:37:57;11.80;99.90
26655;DHT22;14278;50.784;4.630;2024-03-23T13:40:23;12.10;99.90
26655;DHT22;14278;50.784;4.630;2024-03-23T13:42:49;12.30;99.90
26655;DHT22;14278;50.784;4.630;2024-03-23T13:45:15;12.50;99.90
26655;DHT22;14278;50.784;4.630;2024-03-23T13:47:42;12.80;99.90
26655;DHT22;14278;50.784;4.630;2024-03-23T13:50:11;13.40;99.90
26655;DHT22;14278;50.784;4.630;2024-03-23T14:00:33;11.80;99.90
26655;DHT22;14278;50.784;4.630;2024-03-23T14:03:16;11.60;99.90
26655;DHT22;14278;50.784;4.630;2024-03-23T14:05:46;11.40;99.90
26655;DHT22;14278;50.784;4.630;2024-03-23T14:13:44;11.50;99.90
26655;DHT22;14278;50.784;4.630;2024-03-23T14:16:10;11.60;99.90
26655;DHT22;14278;50.784;4.630;2024-03-23T14:32:10;12.00;99.90
26655;DHT22;14278;50.784;4.630;2024-03-23T14:37:16;11.90;99.90
26655;DHT22;14278;50.784;4.630;2024-03-23T14:44:48;11.90;99.90
26655;DHT22;14278;50.784;4.630;2024-03-23T14:47:17;11.70;99.90
26655;DHT22;14278;50.784;4.630;2024-03-23T14:50:21;11.90;99.90
26655;DHT22;14278;50.784;4.630;2024-03-23T14:53:26;11.80;99.90
26655;DHT22;14278;50.784;4.630;2024-03-23T15:10:05;11.10;99.90
26655;DHT22;14278;50.784;4.630;2024-03-23T15:13:09;11.10;99.90
26655;DHT22;14278;50.784;4.630;2024-03-23T15:24:38;11.60;99.90
26655;DHT22;14278;50.784;4.630;2024-03-23T15:50:49;11.20;99.90
26655;DHT22;14278;50.784;4.630;2024-03-23T16:06:12;11.10;99.90
26655;DHT22;14278;50.784;4.630;2024-03-23T16:08:37;11.20;99.90
26655;DHT22;14278;50.784;4.630;2024-03-23T16:14:13;11.30;99.90
26655;DHT22;14278;50.784;4.630;2024-03-23T16:16:41;11.10;99.90
26655;DHT22;14278;50.784;4.630;2024-03-23T16:19:10;11.20;99.90
26655;DHT22;14278;50.784;4.630;2024-03-23T16:21:38;10.90;99.90
26655;DHT22;14278;50.784;4.630;2024-03-23T16:24:11;11.20;99.90
26655;DHT22;14278;50.784;4.630;2024-03-23T16:26:37;11.20;99.90
26655;DHT22;14278;50.784;4.630;2024-03-23T16:29:02;11.10;99.90
26655;DHT22;14278;50.784;4.630;2024-03-23T16:31:28;11.30;99.90
26655;DHT22;14278;50.784;4.630;2024-03-23T16:41:40;11.70;99.90
26655;DHT22;14278;50.784;4.630;2024-03-23T16:44:29;11.50;99.90
26655;DHT22;14278;50.784;4.630;2024-03-23T16:46:55;11.20;99.90
26655;DHT22;14278;50.784;4.630;2024-03-23T16:51:57;11.10;99.90
26655;DHT22;14278;50.784;4.630;2024-03-23T17:00:36;10.80;99.90
26655;DHT22;14278;50.784;4.630;2024-03-23T17:03:29;11.10;99.90
26655;DHT22;14278;50.784;4.630;2024-03-23T17:05:55;11.50;99.90
26655;DHT22;14278;50.784;4.630;2024-03-23T17:08:21;11.20;99.90
26655;DHT22;14278;50.784;4.630;2024-03-23T17:13:33;11.10;99.90
26655;DHT22;14278;50.784;4.630;2024-03-23T17:16:03;11.20;99.90
26655;DHT22;14278;50.784;4.630;2024-03-23T17:18:50;11.50;99.90
26655;DHT22;14278;50.784;4.630;2024-03-23T17:21:19;11.20;99.90
26655;DHT22;14278;50.784;4.630;2024-03-23T17:23:46;11.30;99.90
26655;DHT22;14278;50.784;4.630;2024-03-23T17:26:12;11.20;99.90
26655;DHT22;14278;50.784;4.630;2024-03-23T17:28:38;11.00;99.90
26655;DHT22;14278;50.784;4.630;2024-03-23T17:33:51;10.70;99.90
26655;DHT22;14278;50.784;4.630;2024-03-23T17:38:57;10.60;99.90
26655;DHT22;14278;50.784;4.630;2024-03-23T17:41:39;10.60;99.90
26655;DHT22;14278;50.784;4.630;2024-03-23T17:44:06;10.30;99.90
26655;DHT22;14278;50.784;4.630;2024-03-23T18:02:35;9.80;99.90
26655;DHT22;14278;50.784;4.630;2024-03-23T18:05:00;10.00;99.90
26655;DHT22;14278;50.784;4.630;2024-03-23T18:15:39;10.10;99.90
26655;DHT22;14278;50.784;4.630;2024-03-23T18:20:51;9.70;99.90
26655;DHT22;14278;50.784;4.630;2024-03-23T18:25:59;8.80;99.90
26655;DHT22;14278;50.784;4.630;2024-03-23T18:28:25;8.60;99.90
26655;DHT22;14278;50.784;4.630;2024-03-23T18:31:01;8.30;99.90
26655;DHT22;14278;50.784;4.630;2024-03-23T18:38:38;8.60;99.90
26655;DHT22;14278;50.784;4.630;2024-03-23T18:43:39;8.70;99.90
26655;DHT22;14278;50.784;4.630;2024-03-23T18:48:41;9.00;99.90
26655;DHT22;14278;50.784;4.630;2024-03-23T18:53:42;9.00;99.90
26655;DHT22;14278;50.784;4.630;2024-03-23T18:56:08;9.30;99.90
26655;DHT22;14278;50.784;4.630;2024-03-23T19:05:11;9.60;99.90
26655;DHT22;14278;50.784;4.630;2024-03-23T19:07:36;9.40;99.90
26655;DHT22;14278;50.784;4.630;2024-03-23T19:12:37;9.50;99.90
26655;DHT22;14278;50.784;4.630;2024-03-23T19:18:07;9.20;99.90
26655;DHT22;14278;50.784;4.630;2024-03-23T19:20:33;8.90;99.90
26655;DHT22;14278;50.784;4.630;2024-03-23T19:25:36;8.70;99.90
26655;DHT22;14278;50.784;4.630;2024-03-23T19:30:38;8.90;99.90
26655;DHT22;14278;50.784;4.630;2024-03-23T19:33:04;8.70;99.90
26655;DHT22;14278;50.784;4.630;2024-03-23T19:35:30;8.60;99.90
26655;DHT22;14278;50.784;4.630;2024-03-23T19:37:55;8.80;99.90
26655;DHT22;14278;50.784;4.630;2024-03-23T19:40:21;9.00;99.90
26655;DHT22;14278;50.784;4.630;2024-03-23T19:42:47;8.90;99.90
26655;DHT22;14278;50.784;4.630;2024-03-23T19:45:13;9.00;99.90
26655;DHT22;14278;50.784;4.630;2024-03-23T19:50:37;9.10;99.90
26655;DHT22;14278;50.784;4.630;2024-03-23T19:55:53;8.90;99.90
26655;DHT22;14278;50.784;4.630;2024-03-23T20:01:15;8.90;99.90
26655;DHT22;14278;50.784;4.630;2024-03-23T20:06:17;8.80;99.90
26655;DHT22;14278;50.784;4.630;2024-03-23T20:17:10;8.60;99.90
26655;DHT22;14278;50.784;4.630;2024-03-23T20:19:53;8.60;99.90
26655;DHT22;14278;50.784;4.630;2024-03-23T20:43:15;8.00;99.90
26655;DHT22;14278;50.784;4.630;2024-03-23T21:01:07;7.80;99.90
26655;DHT22;14278;50.784;4.630;2024-03-23T21:03:35;7.90;99.90
26655;DHT22;14278;50.784;4.630;2024-03-23T21:06:01;7.50;99.90
26655;DHT22;14278;50.784;4.630;2024-03-23T21:11:04;7.40;99.90
26655;DHT22;14278;50.784;4.630;2024-03-23T21:13:32;7.50;99.90
26655;DHT22;14278;50.784;4.630;2024-03-23T21:43:56;7.00;99.90
26655;DHT22;14278;50.784;4.630;2024-03-23T22:16:06;6.90;99.90
26655;DHT22;14278;50.784;4.630;2024-03-23T22:25:47;6.70;99.90
26655;DHT22;14278;50.784;4.630;2024-03-23T22:53:59;6.70;99.90
